Archival Weather

Dallas-Fort Worth Intl

Dallas-Fort Worth, Texas (KDFW)

Report from: Thursday, September 21, 2023 1:53 AM CDT
Current time: Sunday, February 25, 2024 4:24 PM CST

Current weather – Weather history – Daily summaries
Weather forecast

Temperature27.2°C (81.0°F)
Heat index28.6°C (83.5°F)
Dew point18.9°C (66.0°F)
Winds 10 kts (5.1 m/s, 11.5 mph) South-Southeast (160°)
Visibility10 mi. (16.1 km)
Clouds Few clouds 15,000 ft. (4,572 m)
Altimeter29.89 in.Hg (1012 mB)
Relative humidity61 %
Density altitude1,776 ft. (541 m)
Sea-level pressure101.1 kPa (1011 mB, 29.86 in.Hg)
Remarks Automated weather observing station with precipitation discriminator
Flight conditions Visual Meteorological Conditions
Raw dataKDFW 210653Z 16010KT 10SM FEW150 27/19 A2989 RMK AO2 SLP111 T02720189
An error has occurred. This application may no longer respond until reloaded. Reload 🗙